sensor_id;sensor_type;location;lat;lon;timestamp;P1;durP1;ratioP1;P2;durP2;ratioP2
24644;SDS011;12780;45.502;9.146;2022-10-31T00:00:45;23.77;;;10.70;;
24644;SDS011;12780;45.502;9.146;2022-10-31T00:03:11;26.88;;;11.40;;
24644;SDS011;12780;45.502;9.146;2022-10-31T00:05:40;25.98;;;10.43;;
24644;SDS011;12780;45.502;9.146;2022-10-31T00:08:07;24.75;;;10.27;;
24644;SDS011;12780;45.502;9.146;2022-10-31T00:10:33;24.38;;;9.75;;
24644;SDS011;12780;45.502;9.146;2022-10-31T00:12:58;23.40;;;10.18;;
24644;SDS011;12780;45.502;9.146;2022-10-31T00:15:24;20.02;;;10.65;;
24644;SDS011;12780;45.502;9.146;2022-10-31T00:17:49;21.85;;;9.63;;
24644;SDS011;12780;45.502;9.146;2022-10-31T00:20:15;28.35;;;10.75;;
24644;SDS011;12780;45.502;9.146;2022-10-31T00:22:40;25.65;;;9.55;;
24644;SDS011;12780;45.502;9.146;2022-10-31T00:25:06;19.80;;;10.57;;
24644;SDS011;12780;45.502;9.146;2022-10-31T00:27:32;21.13;;;9.75;;
24644;SDS011;12780;45.502;9.146;2022-10-31T00:29:57;21.95;;;9.50;;
24644;SDS011;12780;45.502;9.146;2022-10-31T00:32:23;21.23;;;9.80;;
24644;SDS011;12780;45.502;9.146;2022-10-31T00:34:48;24.52;;;10.18;;
24644;SDS011;12780;45.502;9.146;2022-10-31T00:37:14;19.10;;;9.63;;
24644;SDS011;12780;45.502;9.146;2022-10-31T00:39:39;22.23;;;10.18;;
24644;SDS011;12780;45.502;9.146;2022-10-31T00:42:05;24.80;;;10.40;;
24644;SDS011;12780;45.502;9.146;2022-10-31T00:44:30;24.35;;;9.20;;
24644;SDS011;12780;45.502;9.146;2022-10-31T00:46:56;21.15;;;10.05;;
24644;SDS011;12780;45.502;9.146;2022-10-31T00:49:21;19.15;;;10.13;;
24644;SDS011;12780;45.502;9.146;2022-10-31T00:51:47;20.30;;;9.35;;
24644;SDS011;12780;45.502;9.146;2022-10-31T00:54:13;27.65;;;9.55;;
24644;SDS011;12780;45.502;9.146;2022-10-31T00:56:38;20.10;;;9.48;;
24644;SDS011;12780;45.502;9.146;2022-10-31T00:59:04;22.83;;;10.02;;
24644;SDS011;12780;45.502;9.146;2022-10-31T01:01:29;22.08;;;11.25;;
24644;SDS011;12780;45.502;9.146;2022-10-31T01:03:55;26.05;;;10.25;;
24644;SDS011;12780;45.502;9.146;2022-10-31T01:06:20;21.92;;;10.02;;
24644;SDS011;12780;45.502;9.146;2022-10-31T01:08:46;23.58;;;10.55;;
24644;SDS011;12780;45.502;9.146;2022-10-31T01:11:13;20.85;;;9.73;;
24644;SDS011;12780;45.502;9.146;2022-10-31T01:13:41;19.88;;;9.77;;
24644;SDS011;12780;45.502;9.146;2022-10-31T01:16:09;20.48;;;10.07;;
24644;SDS011;12780;45.502;9.146;2022-10-31T01:18:36;21.67;;;9.55;;
24644;SDS011;12780;45.502;9.146;2022-10-31T01:23:34;24.08;;;10.23;;
24644;SDS011;12780;45.502;9.146;2022-10-31T01:28:34;26.08;;;9.90;;
24644;SDS011;12780;45.502;9.146;2022-10-31T01:31:08;36.95;;;10.82;;
24644;SDS011;12780;45.502;9.146;2022-10-31T01:33:34;20.25;;;9.48;;
24644;SDS011;12780;45.502;9.146;2022-10-31T01:36:00;23.55;;;9.27;;
24644;SDS011;12780;45.502;9.146;2022-10-31T01:38:35;23.58;;;9.63;;
24644;SDS011;12780;45.502;9.146;2022-10-31T01:41:01;26.92;;;9.60;;
24644;SDS011;12780;45.502;9.146;2022-10-31T01:43:41;22.95;;;10.27;;
24644;SDS011;12780;45.502;9.146;2022-10-31T01:46:17;24.15;;;10.18;;
24644;SDS011;12780;45.502;9.146;2022-10-31T01:48:47;22.52;;;9.90;;
24644;SDS011;12780;45.502;9.146;2022-10-31T01:51:13;26.25;;;9.45;;
24644;SDS011;12780;45.502;9.146;2022-10-31T01:53:40;22.08;;;9.43;;
24644;SDS011;12780;45.502;9.146;2022-10-31T01:56:09;20.83;;;9.30;;
24644;SDS011;12780;45.502;9.146;2022-10-31T01:58:36;21.88;;;8.90;;
24644;SDS011;12780;45.502;9.146;2022-10-31T02:01:02;24.63;;;8.90;;
24644;SDS011;12780;45.502;9.146;2022-10-31T02:03:29;21.85;;;8.45;;
24644;SDS011;12780;45.502;9.146;2022-10-31T02:05:55;24.80;;;8.40;;
24644;SDS011;12780;45.502;9.146;2022-10-31T02:08:29;18.55;;;7.80;;
24644;SDS011;12780;45.502;9.146;2022-10-31T02:10:56;25.38;;;9.85;;
24644;SDS011;12780;45.502;9.146;2022-10-31T02:13:23;31.20;;;9.02;;
24644;SDS011;12780;45.502;9.146;2022-10-31T02:15:51;15.90;;;8.38;;
24644;SDS011;12780;45.502;9.146;2022-10-31T02:18:19;18.98;;;8.43;;
24644;SDS011;12780;45.502;9.146;2022-10-31T02:20:48;21.40;;;8.02;;
24644;SDS011;12780;45.502;9.146;2022-10-31T02:23:26;19.45;;;8.88;;
24644;SDS011;12780;45.502;9.146;2022-10-31T02:26:38;20.80;;;7.82;;
24644;SDS011;12780;45.502;9.146;2022-10-31T02:32:09;20.70;;;8.70;;
24644;SDS011;12780;45.502;9.146;2022-10-31T02:37:34;18.95;;;8.25;;
24644;SDS011;12780;45.502;9.146;2022-10-31T02:40:06;22.95;;;8.15;;
24644;SDS011;12780;45.502;9.146;2022-10-31T02:42:48;22.13;;;8.00;;
24644;SDS011;12780;45.502;9.146;2022-10-31T02:48:04;16.88;;;8.20;;
24644;SDS011;12780;45.502;9.146;2022-10-31T02:50:36;18.77;;;7.85;;
24644;SDS011;12780;45.502;9.146;2022-10-31T02:53:06;18.73;;;7.45;;
24644;SDS011;12780;45.502;9.146;2022-10-31T02:58:07;20.70;;;7.88;;
24644;SDS011;12780;45.502;9.146;2022-10-31T03:09:12;18.90;;;7.65;;
24644;SDS011;12780;45.502;9.146;2022-10-31T03:14:31;17.67;;;7.28;;
24644;SDS011;12780;45.502;9.146;2022-10-31T03:17:06;14.52;;;7.60;;
24644;SDS011;12780;45.502;9.146;2022-10-31T03:19:37;14.60;;;6.95;;
24644;SDS011;12780;45.502;9.146;2022-10-31T03:22:19;14.63;;;6.50;;
24644;SDS011;12780;45.502;9.146;2022-10-31T03:24:47;20.80;;;6.40;;
24644;SDS011;12780;45.502;9.146;2022-10-31T03:27:16;15.02;;;6.20;;
24644;SDS011;12780;45.502;9.146;2022-10-31T03:29:47;15.20;;;6.35;;
24644;SDS011;12780;45.502;9.146;2022-10-31T03:32:16;17.75;;;6.65;;
24644;SDS011;12780;45.502;9.146;2022-10-31T03:34:47;15.88;;;6.28;;
24644;SDS011;12780;45.502;9.146;2022-10-31T03:37:15;20.15;;;6.88;;
24644;SDS011;12780;45.502;9.146;2022-10-31T03:39:44;17.45;;;6.15;;
24644;SDS011;12780;45.502;9.146;2022-10-31T03:42:13;15.43;;;5.97;;
24644;SDS011;12780;45.502;9.146;2022-10-31T03:44:42;19.38;;;6.32;;
24644;SDS011;12780;45.502;9.146;2022-10-31T03:47:16;19.33;;;6.05;;
24644;SDS011;12780;45.502;9.146;2022-10-31T03:49:42;11.70;;;5.57;;
24644;SDS011;12780;45.502;9.146;2022-10-31T03:54:38;17.15;;;5.63;;
24644;SDS011;12780;45.502;9.146;2022-10-31T04:00:04;13.82;;;5.72;;
24644;SDS011;12780;45.502;9.146;2022-10-31T04:02:33;19.95;;;6.57;;
24644;SDS011;12780;45.502;9.146;2022-10-31T04:05:03;12.30;;;5.38;;
24644;SDS011;12780;45.502;9.146;2022-10-31T04:07:32;17.25;;;6.10;;
24644;SDS011;12780;45.502;9.146;2022-10-31T04:10:02;16.50;;;5.82;;
24644;SDS011;12780;45.502;9.146;2022-10-31T04:12:32;13.80;;;5.60;;
24644;SDS011;12780;45.502;9.146;2022-10-31T04:15:01;17.48;;;5.93;;
24644;SDS011;12780;45.502;9.146;2022-10-31T04:17:31;13.43;;;5.10;;
24644;SDS011;12780;45.502;9.146;2022-10-31T04:19:59;14.40;;;5.50;;
24644;SDS011;12780;45.502;9.146;2022-10-31T04:22:26;12.35;;;5.60;;
24644;SDS011;12780;45.502;9.146;2022-10-31T04:24:52;20.20;;;5.45;;
24644;SDS011;12780;45.502;9.146;2022-10-31T04:27:17;15.77;;;6.13;;
24644;SDS011;12780;45.502;9.146;2022-10-31T04:29:43;14.80;;;5.35;;
24644;SDS011;12780;45.502;9.146;2022-10-31T04:32:08;12.65;;;5.20;;
24644;SDS011;12780;45.502;9.146;2022-10-31T04:34:34;17.98;;;5.18;;
24644;SDS011;12780;45.502;9.146;2022-10-31T04:36:59;14.60;;;5.18;;
24644;SDS011;12780;45.502;9.146;2022-10-31T04:39:25;13.95;;;5.50;;
24644;SDS011;12780;45.502;9.146;2022-10-31T04:41:50;13.85;;;5.65;;
24644;SDS011;12780;45.502;9.146;2022-10-31T04:44:16;20.73;;;5.10;;
24644;SDS011;12780;45.502;9.146;2022-10-31T04:46:41;11.55;;;4.78;;
24644;SDS011;12780;45.502;9.146;2022-10-31T04:49:07;16.70;;;4.90;;
24644;SDS011;12780;45.502;9.146;2022-10-31T04:51:32;14.35;;;5.45;;
24644;SDS011;12780;45.502;9.146;2022-10-31T04:53:58;13.82;;;5.22;;
24644;SDS011;12780;45.502;9.146;2022-10-31T04:56:24;15.05;;;5.72;;
24644;SDS011;12780;45.502;9.146;2022-10-31T04:58:49;19.08;;;5.75;;
24644;SDS011;12780;45.502;9.146;2022-10-31T05:01:15;23.55;;;6.30;;
24644;SDS011;12780;45.502;9.146;2022-10-31T05:03:41;13.75;;;5.82;;
24644;SDS011;12780;45.502;9.146;2022-10-31T05:06:07;21.02;;;5.90;;
24644;SDS011;12780;45.502;9.146;2022-10-31T05:08:32;22.33;;;7.45;;
24644;SDS011;12780;45.502;9.146;2022-10-31T05:11:02;19.20;;;7.28;;
24644;SDS011;12780;45.502;9.146;2022-10-31T05:13:28;18.73;;;6.50;;
24644;SDS011;12780;45.502;9.146;2022-10-31T05:15:54;16.77;;;6.13;;
24644;SDS011;12780;45.502;9.146;2022-10-31T05:18:20;17.25;;;5.85;;
24644;SDS011;12780;45.502;9.146;2022-10-31T05:20:46;15.13;;;5.43;;
24644;SDS011;12780;45.502;9.146;2022-10-31T05:23:11;19.08;;;6.38;;
24644;SDS011;12780;45.502;9.146;2022-10-31T05:25:37;13.98;;;6.10;;
24644;SDS011;12780;45.502;9.146;2022-10-31T05:28:04;15.85;;;6.38;;
24644;SDS011;12780;45.502;9.146;2022-10-31T05:30:31;15.95;;;5.45;;
24644;SDS011;12780;45.502;9.146;2022-10-31T05:32:57;16.33;;;5.57;;
24644;SDS011;12780;45.502;9.146;2022-10-31T05:35:24;17.35;;;5.72;;
24644;SDS011;12780;45.502;9.146;2022-10-31T05:37:52;14.48;;;5.20;;
24644;SDS011;12780;45.502;9.146;2022-10-31T05:40:18;15.00;;;5.68;;
24644;SDS011;12780;45.502;9.146;2022-10-31T05:42:44;18.48;;;5.93;;
24644;SDS011;12780;45.502;9.146;2022-10-31T05:45:11;16.40;;;6.15;;
24644;SDS011;12780;45.502;9.146;2022-10-31T05:47:39;20.95;;;5.70;;
24644;SDS011;12780;45.502;9.146;2022-10-31T05:50:05;18.52;;;6.05;;
24644;SDS011;12780;45.502;9.146;2022-10-31T05:52:31;16.23;;;5.78;;
24644;SDS011;12780;45.502;9.146;2022-10-31T05:54:57;16.40;;;6.38;;
24644;SDS011;12780;45.502;9.146;2022-10-31T05:57:23;19.75;;;6.32;;
24644;SDS011;12780;45.502;9.146;2022-10-31T05:59:49;20.83;;;6.45;;
24644;SDS011;12780;45.502;9.146;2022-10-31T06:02:17;22.83;;;7.00;;
24644;SDS011;12780;45.502;9.146;2022-10-31T06:04:43;27.85;;;7.43;;
24644;SDS011;12780;45.502;9.146;2022-10-31T06:07:09;22.33;;;6.20;;
24644;SDS011;12780;45.502;9.146;2022-10-31T06:09:34;20.85;;;6.85;;
24644;SDS011;12780;45.502;9.146;2022-10-31T06:12:00;17.63;;;6.10;;
24644;SDS011;12780;45.502;9.146;2022-10-31T06:14:26;15.73;;;5.93;;
24644;SDS011;12780;45.502;9.146;2022-10-31T06:16:51;13.93;;;5.95;;
24644;SDS011;12780;45.502;9.146;2022-10-31T06:19:17;16.73;;;6.22;;
24644;SDS011;12780;45.502;9.146;2022-10-31T06:21:42;18.80;;;6.28;;
24644;SDS011;12780;45.502;9.146;2022-10-31T06:24:08;20.55;;;6.72;;
24644;SDS011;12780;45.502;9.146;2022-10-31T06:26:33;15.43;;;6.93;;
24644;SDS011;12780;45.502;9.146;2022-10-31T06:28:59;20.55;;;7.30;;
24644;SDS011;12780;45.502;9.146;2022-10-31T06:31:24;23.52;;;7.10;;
24644;SDS011;12780;45.502;9.146;2022-10-31T06:33:50;17.65;;;6.97;;
24644;SDS011;12780;45.502;9.146;2022-10-31T06:36:16;22.63;;;7.30;;
24644;SDS011;12780;45.502;9.146;2022-10-31T06:38:41;27.90;;;8.63;;
24644;SDS011;12780;45.502;9.146;2022-10-31T06:41:07;22.88;;;7.20;;
24644;SDS011;12780;45.502;9.146;2022-10-31T06:43:32;18.10;;;7.80;;
24644;SDS011;12780;45.502;9.146;2022-10-31T06:46:01;26.33;;;7.90;;
24644;SDS011;12780;45.502;9.146;2022-10-31T06:48:28;22.33;;;9.07;;
24644;SDS011;12780;45.502;9.146;2022-10-31T06:50:56;22.92;;;9.20;;
24644;SDS011;12780;45.502;9.146;2022-10-31T06:53:25;19.27;;;7.55;;
24644;SDS011;12780;45.502;9.146;2022-10-31T06:55:52;18.60;;;8.18;;
24644;SDS011;12780;45.502;9.146;2022-10-31T06:58:17;21.48;;;8.10;;
24644;SDS011;12780;45.502;9.146;2022-10-31T07:00:43;22.83;;;7.85;;
24644;SDS011;12780;45.502;9.146;2022-10-31T07:03:12;20.20;;;7.15;;
24644;SDS011;12780;45.502;9.146;2022-10-31T07:05:39;22.17;;;7.95;;
24644;SDS011;12780;45.502;9.146;2022-10-31T07:08:06;18.38;;;6.30;;
24644;SDS011;12780;45.502;9.146;2022-10-31T07:10:34;22.38;;;6.53;;
24644;SDS011;12780;45.502;9.146;2022-10-31T07:13:01;19.55;;;6.63;;
24644;SDS011;12780;45.502;9.146;2022-10-31T07:15:29;16.48;;;6.10;;
24644;SDS011;12780;45.502;9.146;2022-10-31T07:18:01;17.35;;;6.22;;
24644;SDS011;12780;45.502;9.146;2022-10-31T07:20:29;20.23;;;6.30;;
24644;SDS011;12780;45.502;9.146;2022-10-31T07:22:55;18.83;;;6.10;;
24644;SDS011;12780;45.502;9.146;2022-10-31T07:25:22;17.23;;;6.53;;
24644;SDS011;12780;45.502;9.146;2022-10-31T07:27:48;24.48;;;6.00;;
24644;SDS011;12780;45.502;9.146;2022-10-31T07:30:14;19.35;;;5.70;;
24644;SDS011;12780;45.502;9.146;2022-10-31T07:32:51;19.40;;;5.82;;
24644;SDS011;12780;45.502;9.146;2022-10-31T07:35:17;26.27;;;6.18;;
24644;SDS011;12780;45.502;9.146;2022-10-31T07:37:44;20.45;;;5.90;;
24644;SDS011;12780;45.502;9.146;2022-10-31T07:40:10;19.38;;;6.45;;
24644;SDS011;12780;45.502;9.146;2022-10-31T07:45:06;24.30;;;6.20;;
24644;SDS011;12780;45.502;9.146;2022-10-31T07:47:43;17.98;;;6.03;;
24644;SDS011;12780;45.502;9.146;2022-10-31T07:50:10;22.27;;;5.63;;
24644;SDS011;12780;45.502;9.146;2022-10-31T07:52:38;26.33;;;5.22;;
24644;SDS011;12780;45.502;9.146;2022-10-31T07:55:04;24.17;;;6.30;;
24644;SDS011;12780;45.502;9.146;2022-10-31T07:57:30;21.65;;;6.93;;
24644;SDS011;12780;45.502;9.146;2022-10-31T07:59:56;18.23;;;6.07;;
24644;SDS011;12780;45.502;9.146;2022-10-31T08:02:22;23.58;;;6.03;;
24644;SDS011;12780;45.502;9.146;2022-10-31T08:04:48;19.45;;;6.07;;
24644;SDS011;12780;45.502;9.146;2022-10-31T08:07:14;20.48;;;5.90;;
24644;SDS011;12780;45.502;9.146;2022-10-31T08:09:39;21.05;;;6.57;;
24644;SDS011;12780;45.502;9.146;2022-10-31T08:12:05;20.75;;;6.63;;
24644;SDS011;12780;45.502;9.146;2022-10-31T08:14:30;20.30;;;6.25;;
24644;SDS011;12780;45.502;9.146;2022-10-31T08:16:56;23.50;;;6.57;;
24644;SDS011;12780;45.502;9.146;2022-10-31T08:19:22;26.40;;;6.65;;
24644;SDS011;12780;45.502;9.146;2022-10-31T08:21:50;27.10;;;7.50;;
24644;SDS011;12780;45.502;9.146;2022-10-31T08:24:17;25.65;;;6.75;;
24644;SDS011;12780;45.502;9.146;2022-10-31T08:26:42;16.98;;;6.38;;
24644;SDS011;12780;45.502;9.146;2022-10-31T08:29:08;18.98;;;6.05;;
24644;SDS011;12780;45.502;9.146;2022-10-31T08:31:34;27.25;;;6.82;;
24644;SDS011;12780;45.502;9.146;2022-10-31T08:33:59;20.30;;;6.25;;
24644;SDS011;12780;45.502;9.146;2022-10-31T08:36:26;28.15;;;6.53;;
24644;SDS011;12780;45.502;9.146;2022-10-31T08:38:52;23.40;;;6.80;;
24644;SDS011;12780;45.502;9.146;2022-10-31T08:41:18;18.90;;;6.43;;
24644;SDS011;12780;45.502;9.146;2022-10-31T08:43:43;19.15;;;6.28;;
24644;SDS011;12780;45.502;9.146;2022-10-31T08:46:09;14.57;;;5.97;;
24644;SDS011;12780;45.502;9.146;2022-10-31T08:48:35;24.58;;;6.50;;
24644;SDS011;12780;45.502;9.146;2022-10-31T08:51:00;22.55;;;6.28;;
24644;SDS011;12780;45.502;9.146;2022-10-31T08:53:26;25.00;;;6.88;;
24644;SDS011;12780;45.502;9.146;2022-10-31T08:55:54;22.67;;;7.15;;
24644;SDS011;12780;45.502;9.146;2022-10-31T08:58:21;20.98;;;7.60;;
24644;SDS011;12780;45.502;9.146;2022-10-31T09:00:48;21.65;;;6.72;;
24644;SDS011;12780;45.502;9.146;2022-10-31T09:03:16;19.15;;;6.68;;
24644;SDS011;12780;45.502;9.146;2022-10-31T09:05:44;18.08;;;7.45;;
24644;SDS011;12780;45.502;9.146;2022-10-31T09:08:11;20.20;;;7.75;;
24644;SDS011;12780;45.502;9.146;2022-10-31T09:10:37;21.60;;;7.40;;
24644;SDS011;12780;45.502;9.146;2022-10-31T09:13:04;25.63;;;7.40;;
24644;SDS011;12780;45.502;9.146;2022-10-31T09:15:35;19.60;;;7.18;;
24644;SDS011;12780;45.502;9.146;2022-10-31T09:18:03;27.25;;;7.40;;
24644;SDS011;12780;45.502;9.146;2022-10-31T09:20:30;18.40;;;7.38;;
24644;SDS011;12780;45.502;9.146;2022-10-31T09:22:57;23.42;;;8.02;;
24644;SDS011;12780;45.502;9.146;2022-10-31T09:25:24;24.10;;;7.88;;
24644;SDS011;12780;45.502;9.146;2022-10-31T09:27:50;25.73;;;8.48;;
24644;SDS011;12780;45.502;9.146;2022-10-31T09:30:16;35.95;;;8.25;;
24644;SDS011;12780;45.502;9.146;2022-10-31T09:32:41;24.02;;;8.68;;
24644;SDS011;12780;45.502;9.146;2022-10-31T09:35:07;29.95;;;9.23;;
24644;SDS011;12780;45.502;9.146;2022-10-31T09:37:33;21.92;;;8.40;;
24644;SDS011;12780;45.502;9.146;2022-10-31T09:39:58;22.00;;;8.23;;
24644;SDS011;12780;45.502;9.146;2022-10-31T09:42:46;21.95;;;9.10;;
24644;SDS011;12780;45.502;9.146;2022-10-31T09:45:22;31.10;;;8.90;;
24644;SDS011;12780;45.502;9.146;2022-10-31T09:50:37;24.10;;;9.57;;
24644;SDS011;12780;45.502;9.146;2022-10-31T09:53:19;23.05;;;9.25;;
24644;SDS011;12780;45.502;9.146;2022-10-31T09:55:48;33.03;;;11.85;;
24644;SDS011;12780;45.502;9.146;2022-10-31T09:58:25;26.13;;;11.23;;
24644;SDS011;12780;45.502;9.146;2022-10-31T10:00:53;32.60;;;11.55;;
24644;SDS011;12780;45.502;9.146;2022-10-31T10:03:39;31.60;;;12.40;;
24644;SDS011;12780;45.502;9.146;2022-10-31T10:06:14;33.42;;;14.05;;
24644;SDS011;12780;45.502;9.146;2022-10-31T10:08:47;34.83;;;14.52;;
24644;SDS011;12780;45.502;9.146;2022-10-31T10:14:22;35.53;;;13.38;;
24644;SDS011;12780;45.502;9.146;2022-10-31T10:22:30;41.20;;;15.68;;
24644;SDS011;12780;45.502;9.146;2022-10-31T10:25:14;37.50;;;17.33;;
24644;SDS011;12780;45.502;9.146;2022-10-31T10:28:00;39.40;;;17.08;;
24644;SDS011;12780;45.502;9.146;2022-10-31T10:30:40;39.22;;;17.15;;
24644;SDS011;12780;45.502;9.146;2022-10-31T10:33:19;37.80;;;18.08;;
24644;SDS011;12780;45.502;9.146;2022-10-31T10:35:50;47.70;;;18.42;;
24644;SDS011;12780;45.502;9.146;2022-10-31T10:38:53;43.08;;;19.10;;
24644;SDS011;12780;45.502;9.146;2022-10-31T10:41:24;43.33;;;18.52;;
24644;SDS011;12780;45.502;9.146;2022-10-31T10:43:54;33.60;;;17.13;;
24644;SDS011;12780;45.502;9.146;2022-10-31T10:57:21;52.80;;;20.13;;
24644;SDS011;12780;45.502;9.146;2022-10-31T10:59:55;39.60;;;18.05;;
24644;SDS011;12780;45.502;9.146;2022-10-31T11:02:27;41.80;;;19.52;;
24644;SDS011;12780;45.502;9.146;2022-10-31T11:04:57;39.17;;;17.75;;
24644;SDS011;12780;45.502;9.146;2022-10-31T11:07:25;34.08;;;17.30;;
24644;SDS011;12780;45.502;9.146;2022-10-31T11:10:02;41.45;;;18.48;;
24644;SDS011;12780;45.502;9.146;2022-10-31T11:12:30;36.95;;;18.65;;
24644;SDS011;12780;45.502;9.146;2022-10-31T11:14:59;37.67;;;16.52;;
24644;SDS011;12780;45.502;9.146;2022-10-31T11:20:03;39.28;;;18.33;;
24644;SDS011;12780;45.502;9.146;2022-10-31T11:22:31;35.88;;;17.08;;
24644;SDS011;12780;45.502;9.146;2022-10-31T11:24:56;39.55;;;15.90;;
24644;SDS011;12780;45.502;9.146;2022-10-31T11:27:23;35.75;;;15.63;;
24644;SDS011;12780;45.502;9.146;2022-10-31T11:29:50;29.52;;;14.00;;
24644;SDS011;12780;45.502;9.146;2022-10-31T11:32:17;33.33;;;13.88;;
24644;SDS011;12780;45.502;9.146;2022-10-31T11:34:46;34.40;;;13.88;;
24644;SDS011;12780;45.502;9.146;2022-10-31T11:37:16;25.02;;;12.27;;
24644;SDS011;12780;45.502;9.146;2022-10-31T11:40:33;32.03;;;12.50;;
24644;SDS011;12780;45.502;9.146;2022-10-31T11:42:41;31.83;;;12.55;;
24644;SDS011;12780;45.502;9.146;2022-10-31T11:45:15;34.13;;;12.45;;
24644;SDS011;12780;45.502;9.146;2022-10-31T11:47:49;30.17;;;13.18;;
24644;SDS011;12780;45.502;9.146;2022-10-31T11:50:21;26.92;;;11.65;;
24644;SDS011;12780;45.502;9.146;2022-10-31T11:52:49;28.73;;;11.50;;
24644;SDS011;12780;45.502;9.146;2022-10-31T11:55:25;28.73;;;11.35;;
24644;SDS011;12780;45.502;9.146;2022-10-31T11:57:56;28.55;;;11.77;;
24644;SDS011;12780;45.502;9.146;2022-10-31T12:02:48;26.92;;;12.40;;
24644;SDS011;12780;45.502;9.146;2022-10-31T12:07:52;24.75;;;11.38;;
24644;SDS011;12780;45.502;9.146;2022-10-31T12:10:19;26.75;;;11.43;;
24644;SDS011;12780;45.502;9.146;2022-10-31T12:17:51;29.83;;;12.73;;
24644;SDS011;12780;45.502;9.146;2022-10-31T12:20:53;32.28;;;11.43;;
24644;SDS011;12780;45.502;9.146;2022-10-31T12:26:20;29.75;;;11.88;;
24644;SDS011;12780;45.502;9.146;2022-10-31T12:36:45;31.40;;;11.15;;
24644;SDS011;12780;45.502;9.146;2022-10-31T12:45:00;30.10;;;10.95;;
24644;SDS011;12780;45.502;9.146;2022-10-31T12:48:00;32.53;;;12.27;;
24644;SDS011;12780;45.502;9.146;2022-10-31T13:04:42;27.50;;;11.25;;
24644;SDS011;12780;45.502;9.146;2022-10-31T13:07:36;29.48;;;11.10;;
24644;SDS011;12780;45.502;9.146;2022-10-31T13:10:22;25.00;;;10.20;;
24644;SDS011;12780;45.502;9.146;2022-10-31T13:12:54;20.15;;;9.98;;
24644;SDS011;12780;45.502;9.146;2022-10-31T13:15:29;26.33;;;10.00;;
24644;SDS011;12780;45.502;9.146;2022-10-31T13:18:00;29.60;;;10.90;;
24644;SDS011;12780;45.502;9.146;2022-10-31T13:23:11;32.28;;;10.57;;
24644;SDS011;12780;45.502;9.146;2022-10-31T13:25:46;20.58;;;8.70;;
24644;SDS011;12780;45.502;9.146;2022-10-31T13:28:22;23.60;;;7.97;;
24644;SDS011;12780;45.502;9.146;2022-10-31T13:31:15;21.42;;;7.50;;
24644;SDS011;12780;45.502;9.146;2022-10-31T13:41:32;20.17;;;9.35;;
24644;SDS011;12780;45.502;9.146;2022-10-31T13:46:52;27.00;;;10.15;;
24644;SDS011;12780;45.502;9.146;2022-10-31T13:57:06;25.77;;;8.68;;
24644;SDS011;12780;45.502;9.146;2022-10-31T13:59:45;22.25;;;7.95;;
24644;SDS011;12780;45.502;9.146;2022-10-31T14:02:35;22.70;;;7.40;;
24644;SDS011;12780;45.502;9.146;2022-10-31T14:05:03;22.10;;;7.65;;
24644;SDS011;12780;45.502;9.146;2022-10-31T14:07:47;20.23;;;7.18;;
24644;SDS011;12780;45.502;9.146;2022-10-31T14:12:47;19.52;;;6.80;;
24644;SDS011;12780;45.502;9.146;2022-10-31T14:15:15;23.20;;;6.78;;
24644;SDS011;12780;45.502;9.146;2022-10-31T14:22:49;25.60;;;7.30;;
24644;SDS011;12780;45.502;9.146;2022-10-31T14:27:54;17.88;;;6.97;;
24644;SDS011;12780;45.502;9.146;2022-10-31T14:30:22;25.13;;;7.45;;
24644;SDS011;12780;45.502;9.146;2022-10-31T14:32:51;26.77;;;7.00;;
24644;SDS011;12780;45.502;9.146;2022-10-31T14:35:20;21.23;;;7.75;;
24644;SDS011;12780;45.502;9.146;2022-10-31T14:37:54;27.48;;;8.15;;
24644;SDS011;12780;45.502;9.146;2022-10-31T14:40:34;19.05;;;7.28;;
24644;SDS011;12780;45.502;9.146;2022-10-31T14:46:02;20.10;;;6.88;;
24644;SDS011;12780;45.502;9.146;2022-10-31T14:51:29;18.35;;;6.43;;
24644;SDS011;12780;45.502;9.146;2022-10-31T14:54:20;15.32;;;6.30;;
24644;SDS011;12780;45.502;9.146;2022-10-31T14:56:59;20.77;;;6.28;;
24644;SDS011;12780;45.502;9.146;2022-10-31T14:59:31;20.30;;;6.88;;
24644;SDS011;12780;45.502;9.146;2022-10-31T15:02:16;19.83;;;6.90;;
24644;SDS011;12780;45.502;9.146;2022-10-31T15:04:46;23.63;;;6.65;;
24644;SDS011;12780;45.502;9.146;2022-10-31T15:07:17;18.13;;;7.25;;
24644;SDS011;12780;45.502;9.146;2022-10-31T15:09:58;21.58;;;7.95;;
24644;SDS011;12780;45.502;9.146;2022-10-31T15:12:50;21.83;;;6.43;;
24644;SDS011;12780;45.502;9.146;2022-10-31T15:15:23;19.60;;;6.40;;
24644;SDS011;12780;45.502;9.146;2022-10-31T15:17:54;23.00;;;6.32;;
24644;SDS011;12780;45.502;9.146;2022-10-31T15:20:23;18.55;;;6.45;;
24644;SDS011;12780;45.502;9.146;2022-10-31T15:22:57;28.30;;;7.40;;
24644;SDS011;12780;45.502;9.146;2022-10-31T15:25:24;24.63;;;7.15;;
24644;SDS011;12780;45.502;9.146;2022-10-31T15:27:53;25.17;;;6.95;;
24644;SDS011;12780;45.502;9.146;2022-10-31T15:30:19;18.23;;;6.15;;
24644;SDS011;12780;45.502;9.146;2022-10-31T15:32:47;23.48;;;7.55;;
24644;SDS011;12780;45.502;9.146;2022-10-31T15:35:21;23.77;;;7.03;;
24644;SDS011;12780;45.502;9.146;2022-10-31T15:37:49;20.42;;;6.78;;
24644;SDS011;12780;45.502;9.146;2022-10-31T15:40:15;17.58;;;6.22;;
24644;SDS011;12780;45.502;9.146;2022-10-31T15:42:44;19.65;;;6.90;;
24644;SDS011;12780;45.502;9.146;2022-10-31T15:45:17;21.52;;;7.30;;
24644;SDS011;12780;45.502;9.146;2022-10-31T15:50:24;23.90;;;7.47;;
24644;SDS011;12780;45.502;9.146;2022-10-31T15:52:54;25.80;;;7.63;;
24644;SDS011;12780;45.502;9.146;2022-10-31T15:55:22;24.00;;;6.78;;
24644;SDS011;12780;45.502;9.146;2022-10-31T15:58:01;19.92;;;7.18;;
24644;SDS011;12780;45.502;9.146;2022-10-31T16:00:36;27.27;;;7.38;;
24644;SDS011;12780;45.502;9.146;2022-10-31T16:03:04;30.83;;;6.93;;
24644;SDS011;12780;45.502;9.146;2022-10-31T16:05:39;22.17;;;7.00;;
24644;SDS011;12780;45.502;9.146;2022-10-31T16:10:53;24.40;;;7.40;;
24644;SDS011;12780;45.502;9.146;2022-10-31T16:13:28;28.10;;;7.20;;
24644;SDS011;12780;45.502;9.146;2022-10-31T16:16:00;22.02;;;7.00;;
24644;SDS011;12780;45.502;9.146;2022-10-31T16:20:59;32.20;;;7.25;;
24644;SDS011;12780;45.502;9.146;2022-10-31T16:23:26;24.33;;;6.70;;
24644;SDS011;12780;45.502;9.146;2022-10-31T16:25:52;27.60;;;7.20;;
24644;SDS011;12780;45.502;9.146;2022-10-31T16:28:22;25.35;;;7.28;;
24644;SDS011;12780;45.502;9.146;2022-10-31T16:30:53;25.88;;;8.10;;
24644;SDS011;12780;45.502;9.146;2022-10-31T16:33:36;29.92;;;8.82;;
24644;SDS011;12780;45.502;9.146;2022-10-31T16:38:52;37.53;;;8.48;;
24644;SDS011;12780;45.502;9.146;2022-10-31T16:41:18;26.65;;;8.13;;
24644;SDS011;12780;45.502;9.146;2022-10-31T16:43:44;35.85;;;8.68;;
24644;SDS011;12780;45.502;9.146;2022-10-31T16:46:14;25.58;;;8.35;;
24644;SDS011;12780;45.502;9.146;2022-10-31T16:48:42;32.63;;;8.90;;
24644;SDS011;12780;45.502;9.146;2022-10-31T16:51:07;34.25;;;9.23;;
24644;SDS011;12780;45.502;9.146;2022-10-31T16:53:33;29.60;;;9.07;;
24644;SDS011;12780;45.502;9.146;2022-10-31T16:55:59;40.67;;;10.27;;
24644;SDS011;12780;45.502;9.146;2022-10-31T16:58:28;38.55;;;11.35;;
24644;SDS011;12780;45.502;9.146;2022-10-31T17:00:59;33.08;;;10.98;;
24644;SDS011;12780;45.502;9.146;2022-10-31T17:03:26;47.78;;;11.82;;
24644;SDS011;12780;45.502;9.146;2022-10-31T17:05:52;41.85;;;11.73;;
24644;SDS011;12780;45.502;9.146;2022-10-31T17:08:20;48.03;;;11.48;;
24644;SDS011;12780;45.502;9.146;2022-10-31T17:10:46;31.85;;;10.32;;
24644;SDS011;12780;45.502;9.146;2022-10-31T17:13:25;35.85;;;10.73;;